sensor_id;sensor_type;location;lat;lon;timestamp;P1;durP1;ratioP1;P2;durP2;ratioP2
61897;SDS011;47850;50.274;18.908;2023-08-06T00:00:42;48.40;;;23.70;;
61897;SDS011;47850;50.274;18.908;2023-08-06T00:03:47;52.60;;;25.10;;
61897;SDS011;47850;50.274;18.908;2023-08-06T00:06:14;64.00;;;30.90;;
61897;SDS011;47850;50.274;18.908;2023-08-06T00:08:42;71.80;;;34.90;;
61897;SDS011;47850;50.274;18.908;2023-08-06T00:11:10;70.30;;;32.80;;
61897;SDS011;47850;50.274;18.908;2023-08-06T00:13:38;61.70;;;28.20;;
61897;SDS011;47850;50.274;18.908;2023-08-06T00:16:09;50.20;;;24.90;;
61897;SDS011;47850;50.274;18.908;2023-08-06T00:18:41;52.30;;;22.50;;
61897;SDS011;47850;50.274;18.908;2023-08-06T00:21:09;42.10;;;20.20;;
61897;SDS011;47850;50.274;18.908;2023-08-06T00:23:36;40.30;;;18.40;;
61897;SDS011;47850;50.274;18.908;2023-08-06T00:26:04;34.80;;;16.50;;
61897;SDS011;47850;50.274;18.908;2023-08-06T00:28:32;40.00;;;15.50;;
61897;SDS011;47850;50.274;18.908;2023-08-06T00:31:00;41.10;;;15.30;;
61897;SDS011;47850;50.274;18.908;2023-08-06T00:33:27;30.40;;;12.70;;
61897;SDS011;47850;50.274;18.908;2023-08-06T00:35:55;28.00;;;14.80;;
61897;SDS011;47850;50.274;18.908;2023-08-06T00:38:23;33.80;;;14.20;;
61897;SDS011;47850;50.274;18.908;2023-08-06T00:40:51;32.00;;;15.50;;
61897;SDS011;47850;50.274;18.908;2023-08-06T00:43:18;33.20;;;15.90;;
61897;SDS011;47850;50.274;18.908;2023-08-06T00:45:46;36.50;;;16.50;;
61897;SDS011;47850;50.274;18.908;2023-08-06T00:48:14;37.20;;;15.70;;
61897;SDS011;47850;50.274;18.908;2023-08-06T00:50:43;30.60;;;13.70;;
61897;SDS011;47850;50.274;18.908;2023-08-06T00:53:11;24.90;;;13.80;;
61897;SDS011;47850;50.274;18.908;2023-08-06T00:55:39;25.40;;;13.00;;
61897;SDS011;47850;50.274;18.908;2023-08-06T00:58:07;27.70;;;14.90;;
61897;SDS011;47850;50.274;18.908;2023-08-06T01:00:35;48.00;;;15.50;;
61897;SDS011;47850;50.274;18.908;2023-08-06T01:03:03;23.30;;;13.50;;
61897;SDS011;47850;50.274;18.908;2023-08-06T01:05:31;32.60;;;14.80;;
61897;SDS011;47850;50.274;18.908;2023-08-06T01:13:48;27.80;;;13.50;;
61897;SDS011;47850;50.274;18.908;2023-08-06T01:16:22;24.50;;;11.60;;
61897;SDS011;47850;50.274;18.908;2023-08-06T01:18:51;31.10;;;11.90;;
61897;SDS011;47850;50.274;18.908;2023-08-06T01:21:19;22.50;;;11.60;;
61897;SDS011;47850;50.274;18.908;2023-08-06T01:23:47;22.90;;;12.30;;
61897;SDS011;47850;50.274;18.908;2023-08-06T01:31:47;19.00;;;11.30;;
61897;SDS011;47850;50.274;18.908;2023-08-06T01:34:23;21.70;;;11.20;;
61897;SDS011;47850;50.274;18.908;2023-08-06T01:36:52;17.70;;;11.20;;
61897;SDS011;47850;50.274;18.908;2023-08-06T01:39:20;21.50;;;11.10;;
61897;SDS011;47850;50.274;18.908;2023-08-06T01:41:48;22.10;;;11.80;;
61897;SDS011;47850;50.274;18.908;2023-08-06T01:44:16;22.00;;;12.60;;
61897;SDS011;47850;50.274;18.908;2023-08-06T01:46:44;20.40;;;11.90;;
61897;SDS011;47850;50.274;18.908;2023-08-06T01:49:11;22.30;;;12.00;;
61897;SDS011;47850;50.274;18.908;2023-08-06T01:51:39;23.70;;;13.20;;
61897;SDS011;47850;50.274;18.908;2023-08-06T01:54:07;25.40;;;13.50;;
61897;SDS011;47850;50.274;18.908;2023-08-06T01:56:35;24.70;;;12.60;;
61897;SDS011;47850;50.274;18.908;2023-08-06T01:59:03;22.50;;;12.60;;
61897;SDS011;47850;50.274;18.908;2023-08-06T02:01:30;28.80;;;13.10;;
61897;SDS011;47850;50.274;18.908;2023-08-06T02:03:58;26.20;;;14.50;;
61897;SDS011;47850;50.274;18.908;2023-08-06T02:06:26;31.90;;;14.90;;
61897;SDS011;47850;50.274;18.908;2023-08-06T02:08:54;28.80;;;14.20;;
61897;SDS011;47850;50.274;18.908;2023-08-06T02:11:21;30.20;;;15.40;;
61897;SDS011;47850;50.274;18.908;2023-08-06T02:13:49;36.00;;;17.30;;
61897;SDS011;47850;50.274;18.908;2023-08-06T02:16:17;38.90;;;18.30;;
61897;SDS011;47850;50.274;18.908;2023-08-06T02:18:45;37.30;;;17.00;;
61897;SDS011;47850;50.274;18.908;2023-08-06T02:21:12;30.10;;;16.50;;
61897;SDS011;47850;50.274;18.908;2023-08-06T02:23:40;34.20;;;17.20;;
61897;SDS011;47850;50.274;18.908;2023-08-06T02:26:08;32.10;;;16.00;;
61897;SDS011;47850;50.274;18.908;2023-08-06T02:28:36;34.90;;;17.40;;
61897;SDS011;47850;50.274;18.908;2023-08-06T02:31:03;32.30;;;17.10;;
61897;SDS011;47850;50.274;18.908;2023-08-06T02:33:31;25.40;;;14.50;;
61897;SDS011;47850;50.274;18.908;2023-08-06T02:35:59;27.20;;;14.90;;
61897;SDS011;47850;50.274;18.908;2023-08-06T02:38:33;26.80;;;15.00;;
61897;SDS011;47850;50.274;18.908;2023-08-06T02:41:04;23.40;;;14.80;;
61897;SDS011;47850;50.274;18.908;2023-08-06T02:43:32;28.00;;;15.20;;
61897;SDS011;47850;50.274;18.908;2023-08-06T02:46:00;21.70;;;13.10;;
61897;SDS011;47850;50.274;18.908;2023-08-06T02:48:28;21.80;;;13.00;;
61897;SDS011;47850;50.274;18.908;2023-08-06T02:50:57;19.50;;;12.50;;
61897;SDS011;47850;50.274;18.908;2023-08-06T02:53:26;21.40;;;12.70;;
61897;SDS011;47850;50.274;18.908;2023-08-06T02:55:54;20.90;;;12.40;;
61897;SDS011;47850;50.274;18.908;2023-08-06T02:58:22;19.00;;;11.80;;
61897;SDS011;47850;50.274;18.908;2023-08-06T03:03:27;19.90;;;11.90;;
61897;SDS011;47850;50.274;18.908;2023-08-06T03:05:56;17.00;;;12.00;;
61897;SDS011;47850;50.274;18.908;2023-08-06T03:08:23;18.50;;;12.40;;
61897;SDS011;47850;50.274;18.908;2023-08-06T03:10:51;16.80;;;11.80;;
61897;SDS011;47850;50.274;18.908;2023-08-06T03:13:19;19.20;;;11.70;;
61897;SDS011;47850;50.274;18.908;2023-08-06T03:15:54;19.90;;;11.70;;
61897;SDS011;47850;50.274;18.908;2023-08-06T03:18:23;18.40;;;11.40;;
61897;SDS011;47850;50.274;18.908;2023-08-06T03:20:53;16.20;;;12.10;;
61897;SDS011;47850;50.274;18.908;2023-08-06T03:23:21;17.50;;;12.40;;
61897;SDS011;47850;50.274;18.908;2023-08-06T03:25:49;16.80;;;11.80;;
61897;SDS011;47850;50.274;18.908;2023-08-06T03:28:17;19.50;;;12.50;;
61897;SDS011;47850;50.274;18.908;2023-08-06T03:30:44;20.00;;;12.90;;
61897;SDS011;47850;50.274;18.908;2023-08-06T03:33:12;20.40;;;13.80;;
61897;SDS011;47850;50.274;18.908;2023-08-06T03:35:40;20.10;;;13.50;;
61897;SDS011;47850;50.274;18.908;2023-08-06T03:38:07;21.00;;;13.90;;
61897;SDS011;47850;50.274;18.908;2023-08-06T03:40:35;19.10;;;13.80;;
61897;SDS011;47850;50.274;18.908;2023-08-06T03:43:03;21.50;;;14.00;;
61897;SDS011;47850;50.274;18.908;2023-08-06T03:45:31;21.20;;;14.30;;
61897;SDS011;47850;50.274;18.908;2023-08-06T03:47:59;22.00;;;14.80;;
61897;SDS011;47850;50.274;18.908;2023-08-06T03:50:26;21.70;;;13.90;;
61897;SDS011;47850;50.274;18.908;2023-08-06T03:52:54;23.30;;;15.50;;
61897;SDS011;47850;50.274;18.908;2023-08-06T03:55:22;26.40;;;15.90;;
61897;SDS011;47850;50.274;18.908;2023-08-06T03:57:50;23.70;;;15.70;;
61897;SDS011;47850;50.274;18.908;2023-08-06T04:00:17;26.40;;;14.90;;
61897;SDS011;47850;50.274;18.908;2023-08-06T04:02:45;26.00;;;15.50;;
61897;SDS011;47850;50.274;18.908;2023-08-06T04:05:14;27.40;;;15.70;;
61897;SDS011;47850;50.274;18.908;2023-08-06T04:07:42;27.40;;;16.10;;
61897;SDS011;47850;50.274;18.908;2023-08-06T04:10:10;26.70;;;16.10;;
61897;SDS011;47850;50.274;18.908;2023-08-06T04:12:38;29.40;;;16.60;;
61897;SDS011;47850;50.274;18.908;2023-08-06T04:15:06;28.20;;;16.30;;
61897;SDS011;47850;50.274;18.908;2023-08-06T04:17:35;31.10;;;16.60;;
61897;SDS011;47850;50.274;18.908;2023-08-06T04:20:02;26.10;;;15.60;;
61897;SDS011;47850;50.274;18.908;2023-08-06T04:22:31;30.10;;;17.30;;
61897;SDS011;47850;50.274;18.908;2023-08-06T04:24:58;30.70;;;15.90;;
61897;SDS011;47850;50.274;18.908;2023-08-06T04:27:26;39.50;;;18.50;;
61897;SDS011;47850;50.274;18.908;2023-08-06T04:29:54;32.00;;;16.40;;
61897;SDS011;47850;50.274;18.908;2023-08-06T04:32:22;41.50;;;17.90;;
61897;SDS011;47850;50.274;18.908;2023-08-06T04:34:49;35.40;;;17.70;;
61897;SDS011;47850;50.274;18.908;2023-08-06T04:37:17;60.70;;;21.60;;
61897;SDS011;47850;50.274;18.908;2023-08-06T04:39:45;47.90;;;20.00;;
61897;SDS011;47850;50.274;18.908;2023-08-06T04:42:12;90.20;;;18.40;;
61897;SDS011;47850;50.274;18.908;2023-08-06T04:44:40;66.80;;;17.40;;
61897;SDS011;47850;50.274;18.908;2023-08-06T04:47:08;51.50;;;14.90;;
61897;SDS011;47850;50.274;18.908;2023-08-06T04:49:36;57.40;;;14.80;;
61897;SDS011;47850;50.274;18.908;2023-08-06T04:52:03;51.80;;;15.80;;
61897;SDS011;47850;50.274;18.908;2023-08-06T04:54:32;61.30;;;15.20;;
61897;SDS011;47850;50.274;18.908;2023-08-06T04:56:59;56.90;;;13.40;;
61897;SDS011;47850;50.274;18.908;2023-08-06T04:59:27;61.90;;;14.40;;
61897;SDS011;47850;50.274;18.908;2023-08-06T05:01:55;64.60;;;12.80;;
61897;SDS011;47850;50.274;18.908;2023-08-06T05:04:22;48.60;;;12.00;;
61897;SDS011;47850;50.274;18.908;2023-08-06T05:06:50;86.90;;;16.50;;
61897;SDS011;47850;50.274;18.908;2023-08-06T05:09:18;42.10;;;10.90;;
61897;SDS011;47850;50.274;18.908;2023-08-06T05:11:46;22.50;;;11.30;;
61897;SDS011;47850;50.274;18.908;2023-08-06T05:14:15;18.20;;;8.50;;
61897;SDS011;47850;50.274;18.908;2023-08-06T05:16:42;14.80;;;7.60;;
61897;SDS011;47850;50.274;18.908;2023-08-06T05:19:10;11.80;;;6.60;;
61897;SDS011;47850;50.274;18.908;2023-08-06T05:21:38;9.70;;;5.00;;
61897;SDS011;47850;50.274;18.908;2023-08-06T05:24:06;7.60;;;4.20;;
61897;SDS011;47850;50.274;18.908;2023-08-06T05:26:33;5.50;;;3.10;;
61897;SDS011;47850;50.274;18.908;2023-08-06T05:29:01;6.40;;;3.00;;
61897;SDS011;47850;50.274;18.908;2023-08-06T05:31:29;3.20;;;2.30;;
61897;SDS011;47850;50.274;18.908;2023-08-06T05:33:57;5.30;;;2.30;;
61897;SDS011;47850;50.274;18.908;2023-08-06T05:36:24;2.60;;;1.30;;
61897;SDS011;47850;50.274;18.908;2023-08-06T05:38:52;2.30;;;1.00;;
61897;SDS011;47850;50.274;18.908;2023-08-06T05:41:20;2.00;;;1.20;;
61897;SDS011;47850;50.274;18.908;2023-08-06T05:43:48;1.10;;;0.70;;
61897;SDS011;47850;50.274;18.908;2023-08-06T05:46:15;3.60;;;0.90;;
61897;SDS011;47850;50.274;18.908;2023-08-06T05:48:43;1.70;;;0.80;;
61897;SDS011;47850;50.274;18.908;2023-08-06T05:51:11;3.30;;;0.70;;
61897;SDS011;47850;50.274;18.908;2023-08-06T05:53:40;1.80;;;0.80;;
61897;SDS011;47850;50.274;18.908;2023-08-06T05:56:08;1.40;;;0.70;;
61897;SDS011;47850;50.274;18.908;2023-08-06T05:58:36;2.10;;;0.80;;
61897;SDS011;47850;50.274;18.908;2023-08-06T06:01:03;1.80;;;0.60;;
61897;SDS011;47850;50.274;18.908;2023-08-06T06:03:31;1.00;;;0.60;;
61897;SDS011;47850;50.274;18.908;2023-08-06T06:06:00;1.80;;;1.00;;
61897;SDS011;47850;50.274;18.908;2023-08-06T06:08:29;2.10;;;1.00;;
61897;SDS011;47850;50.274;18.908;2023-08-06T06:10:57;1.80;;;1.10;;
61897;SDS011;47850;50.274;18.908;2023-08-06T06:13:25;2.10;;;0.80;;
61897;SDS011;47850;50.274;18.908;2023-08-06T06:15:56;1.60;;;0.50;;
61897;SDS011;47850;50.274;18.908;2023-08-06T06:18:26;1.10;;;0.60;;
61897;SDS011;47850;50.274;18.908;2023-08-06T06:20:54;1.30;;;0.40;;
61897;SDS011;47850;50.274;18.908;2023-08-06T06:23:22;0.80;;;0.40;;
61897;SDS011;47850;50.274;18.908;2023-08-06T06:25:50;1.50;;;0.60;;
61897;SDS011;47850;50.274;18.908;2023-08-06T06:28:19;3.10;;;0.80;;
61897;SDS011;47850;50.274;18.908;2023-08-06T06:30:47;0.80;;;0.60;;
61897;SDS011;47850;50.274;18.908;2023-08-06T06:33:15;0.80;;;0.70;;
61897;SDS011;47850;50.274;18.908;2023-08-06T06:35:43;1.40;;;1.30;;
61897;SDS011;47850;50.274;18.908;2023-08-06T06:38:11;1.40;;;1.00;;
61897;SDS011;47850;50.274;18.908;2023-08-06T06:40:39;0.60;;;0.50;;
61897;SDS011;47850;50.274;18.908;2023-08-06T06:43:06;1.70;;;0.50;;
61897;SDS011;47850;50.274;18.908;2023-08-06T06:45:34;1.30;;;0.50;;
61897;SDS011;47850;50.274;18.908;2023-08-06T06:48:02;2.10;;;0.80;;
61897;SDS011;47850;50.274;18.908;2023-08-06T06:50:30;0.60;;;0.40;;
61897;SDS011;47850;50.274;18.908;2023-08-06T06:52:58;6.40;;;0.60;;
61897;SDS011;47850;50.274;18.908;2023-08-06T06:55:25;0.30;;;0.20;;
61897;SDS011;47850;50.274;18.908;2023-08-06T06:57:53;2.80;;;0.30;;
61897;SDS011;47850;50.274;18.908;2023-08-06T07:00:21;1.00;;;0.40;;
61897;SDS011;47850;50.274;18.908;2023-08-06T07:02:49;2.50;;;0.80;;
61897;SDS011;47850;50.274;18.908;2023-08-06T07:05:17;1.00;;;0.60;;
61897;SDS011;47850;50.274;18.908;2023-08-06T07:07:44;2.20;;;0.70;;
61897;SDS011;47850;50.274;18.908;2023-08-06T07:10:12;0.80;;;0.50;;
61897;SDS011;47850;50.274;18.908;2023-08-06T07:12:40;1.20;;;0.50;;
61897;SDS011;47850;50.274;18.908;2023-08-06T07:15:08;1.30;;;0.70;;
61897;SDS011;47850;50.274;18.908;2023-08-06T07:17:36;1.70;;;0.60;;
61897;SDS011;47850;50.274;18.908;2023-08-06T07:20:04;1.80;;;0.50;;
61897;SDS011;47850;50.274;18.908;2023-08-06T07:22:34;0.70;;;0.50;;
61897;SDS011;47850;50.274;18.908;2023-08-06T07:25:01;2.00;;;0.50;;
61897;SDS011;47850;50.274;18.908;2023-08-06T07:27:30;0.40;;;0.30;;
61897;SDS011;47850;50.274;18.908;2023-08-06T07:29:57;0.30;;;0.20;;
61897;SDS011;47850;50.274;18.908;2023-08-06T07:32:26;0.70;;;0.40;;
61897;SDS011;47850;50.274;18.908;2023-08-06T07:34:55;1.10;;;0.30;;
61897;SDS011;47850;50.274;18.908;2023-08-06T07:37:26;1.70;;;0.30;;
61897;SDS011;47850;50.274;18.908;2023-08-06T07:39:58;0.40;;;0.30;;
61897;SDS011;47850;50.274;18.908;2023-08-06T07:42:26;0.80;;;0.60;;
61897;SDS011;47850;50.274;18.908;2023-08-06T07:44:54;1.20;;;0.50;;
61897;SDS011;47850;50.274;18.908;2023-08-06T07:47:23;1.00;;;0.30;;
61897;SDS011;47850;50.274;18.908;2023-08-06T07:49:51;0.90;;;0.40;;
61897;SDS011;47850;50.274;18.908;2023-08-06T07:52:19;1.10;;;0.60;;
61897;SDS011;47850;50.274;18.908;2023-08-06T07:54:47;0.80;;;0.50;;
61897;SDS011;47850;50.274;18.908;2023-08-06T07:57:15;1.30;;;0.40;;
61897;SDS011;47850;50.274;18.908;2023-08-06T07:59:43;1.20;;;0.40;;
61897;SDS011;47850;50.274;18.908;2023-08-06T08:02:10;1.00;;;0.70;;
61897;SDS011;47850;50.274;18.908;2023-08-06T08:04:38;1.30;;;0.70;;
61897;SDS011;47850;50.274;18.908;2023-08-06T08:07:06;2.80;;;1.00;;
61897;SDS011;47850;50.274;18.908;2023-08-06T08:09:34;2.10;;;0.70;;
61897;SDS011;47850;50.274;18.908;2023-08-06T08:12:03;2.40;;;0.90;;
61897;SDS011;47850;50.274;18.908;2023-08-06T08:14:31;3.40;;;2.30;;
61897;SDS011;47850;50.274;18.908;2023-08-06T08:17:03;3.00;;;1.10;;
61897;SDS011;47850;50.274;18.908;2023-08-06T08:19:32;2.90;;;1.30;;
61897;SDS011;47850;50.274;18.908;2023-08-06T08:22:00;1.80;;;1.50;;
61897;SDS011;47850;50.274;18.908;2023-08-06T08:24:28;1.80;;;1.20;;
61897;SDS011;47850;50.274;18.908;2023-08-06T08:26:58;1.60;;;1.30;;
61897;SDS011;47850;50.274;18.908;2023-08-06T08:29:25;1.40;;;1.20;;
61897;SDS011;47850;50.274;18.908;2023-08-06T08:31:53;1.60;;;1.30;;
61897;SDS011;47850;50.274;18.908;2023-08-06T08:34:21;1.40;;;1.00;;
61897;SDS011;47850;50.274;18.908;2023-08-06T08:36:49;2.00;;;1.10;;
61897;SDS011;47850;50.274;18.908;2023-08-06T08:39:17;1.20;;;0.90;;
61897;SDS011;47850;50.274;18.908;2023-08-06T08:41:45;2.20;;;0.80;;
61897;SDS011;47850;50.274;18.908;2023-08-06T08:44:13;0.90;;;0.40;;
61897;SDS011;47850;50.274;18.908;2023-08-06T08:46:44;0.70;;;0.40;;
61897;SDS011;47850;50.274;18.908;2023-08-06T08:49:15;0.50;;;0.40;;
61897;SDS011;47850;50.274;18.908;2023-08-06T08:51:43;0.90;;;0.30;;
61897;SDS011;47850;50.274;18.908;2023-08-06T08:56:42;0.50;;;0.30;;
61897;SDS011;47850;50.274;18.908;2023-08-06T08:59:11;0.30;;;0.30;;
61897;SDS011;47850;50.274;18.908;2023-08-06T09:01:39;1.80;;;0.30;;
61897;SDS011;47850;50.274;18.908;2023-08-06T09:04:09;0.30;;;0.20;;
61897;SDS011;47850;50.274;18.908;2023-08-06T09:06:38;0.50;;;0.30;;
61897;SDS011;47850;50.274;18.908;2023-08-06T09:09:11;1.20;;;0.40;;
61897;SDS011;47850;50.274;18.908;2023-08-06T09:11:44;0.90;;;0.50;;
61897;SDS011;47850;50.274;18.908;2023-08-06T09:14:12;0.40;;;0.30;;
61897;SDS011;47850;50.274;18.908;2023-08-06T09:16:40;0.60;;;0.30;;
61897;SDS011;47850;50.274;18.908;2023-08-06T09:19:09;1.00;;;0.50;;
61897;SDS011;47850;50.274;18.908;2023-08-06T09:21:38;0.50;;;0.40;;
61897;SDS011;47850;50.274;18.908;2023-08-06T09:24:10;2.30;;;0.50;;
61897;SDS011;47850;50.274;18.908;2023-08-06T09:26:40;0.80;;;0.50;;
61897;SDS011;47850;50.274;18.908;2023-08-06T09:29:09;0.50;;;0.40;;
61897;SDS011;47850;50.274;18.908;2023-08-06T09:31:48;0.60;;;0.40;;
61897;SDS011;47850;50.274;18.908;2023-08-06T09:34:21;1.70;;;0.60;;
61897;SDS011;47850;50.274;18.908;2023-08-06T09:36:51;0.60;;;0.50;;
61897;SDS011;47850;50.274;18.908;2023-08-06T09:39:26;1.30;;;0.50;;
61897;SDS011;47850;50.274;18.908;2023-08-06T09:41:56;1.30;;;0.60;;
61897;SDS011;47850;50.274;18.908;2023-08-06T09:44:26;1.30;;;0.60;;
61897;SDS011;47850;50.274;18.908;2023-08-06T09:46:56;1.40;;;0.50;;
61897;SDS011;47850;50.274;18.908;2023-08-06T09:49:26;1.90;;;0.50;;
61897;SDS011;47850;50.274;18.908;2023-08-06T09:54:26;0.70;;;0.50;;
61897;SDS011;47850;50.274;18.908;2023-08-06T09:56:55;1.00;;;0.60;;
61897;SDS011;47850;50.274;18.908;2023-08-06T09:59:23;0.50;;;0.50;;
61897;SDS011;47850;50.274;18.908;2023-08-06T10:01:51;0.70;;;0.60;;
61897;SDS011;47850;50.274;18.908;2023-08-06T10:04:21;0.60;;;0.60;;
61897;SDS011;47850;50.274;18.908;2023-08-06T10:06:50;1.00;;;0.50;;
61897;SDS011;47850;50.274;18.908;2023-08-06T10:09:19;0.80;;;0.80;;
61897;SDS011;47850;50.274;18.908;2023-08-06T10:11:49;1.20;;;0.60;;
61897;SDS011;47850;50.274;18.908;2023-08-06T10:14:21;0.70;;;0.50;;
61897;SDS011;47850;50.274;18.908;2023-08-06T10:16:54;2.80;;;0.90;;
61897;SDS011;47850;50.274;18.908;2023-08-06T10:19:25;1.10;;;0.70;;
61897;SDS011;47850;50.274;18.908;2023-08-06T10:22:13;1.40;;;0.70;;
61897;SDS011;47850;50.274;18.908;2023-08-06T10:24:52;1.20;;;1.00;;
61897;SDS011;47850;50.274;18.908;2023-08-06T10:32:49;1.00;;;0.60;;
61897;SDS011;47850;50.274;18.908;2023-08-06T10:35:32;1.20;;;0.80;;
61897;SDS011;47850;50.274;18.908;2023-08-06T10:38:09;0.80;;;0.60;;
61897;SDS011;47850;50.274;18.908;2023-08-06T10:40:42;0.90;;;0.50;;
61897;SDS011;47850;50.274;18.908;2023-08-06T10:43:25;0.60;;;0.50;;
61897;SDS011;47850;50.274;18.908;2023-08-06T10:45:55;1.20;;;0.80;;
61897;SDS011;47850;50.274;18.908;2023-08-06T10:51:00;3.40;;;0.70;;
61897;SDS011;47850;50.274;18.908;2023-08-06T10:53:29;1.30;;;0.60;;
61897;SDS011;47850;50.274;18.908;2023-08-06T10:55:57;1.00;;;0.50;;
61897;SDS011;47850;50.274;18.908;2023-08-06T10:58:25;1.10;;;0.60;;
61897;SDS011;47850;50.274;18.908;2023-08-06T11:00:53;2.20;;;0.50;;
61897;SDS011;47850;50.274;18.908;2023-08-06T11:03:23;1.10;;;0.70;;
61897;SDS011;47850;50.274;18.908;2023-08-06T11:05:51;0.90;;;0.50;;
61897;SDS011;47850;50.274;18.908;2023-08-06T11:08:26;0.90;;;0.50;;
61897;SDS011;47850;50.274;18.908;2023-08-06T11:10:54;0.90;;;0.60;;
61897;SDS011;47850;50.274;18.908;2023-08-06T11:13:23;1.70;;;0.70;;
61897;SDS011;47850;50.274;18.908;2023-08-06T11:15:53;1.00;;;0.60;;
61897;SDS011;47850;50.274;18.908;2023-08-06T11:18:21;1.20;;;0.60;;
61897;SDS011;47850;50.274;18.908;2023-08-06T11:20:49;1.30;;;1.00;;
61897;SDS011;47850;50.274;18.908;2023-08-06T11:23:17;2.10;;;0.80;;
61897;SDS011;47850;50.274;18.908;2023-08-06T11:25:45;1.20;;;0.70;;
61897;SDS011;47850;50.274;18.908;2023-08-06T11:28:13;1.20;;;0.70;;
61897;SDS011;47850;50.274;18.908;2023-08-06T11:30:41;1.60;;;0.80;;
61897;SDS011;47850;50.274;18.908;2023-08-06T11:33:09;1.20;;;0.80;;
61897;SDS011;47850;50.274;18.908;2023-08-06T11:35:37;1.00;;;0.60;;
61897;SDS011;47850;50.274;18.908;2023-08-06T11:38:05;1.40;;;0.80;;
61897;SDS011;47850;50.274;18.908;2023-08-06T11:40:35;1.40;;;0.90;;
61897;SDS011;47850;50.274;18.908;2023-08-06T11:43:03;1.80;;;0.60;;
61897;SDS011;47850;50.274;18.908;2023-08-06T11:45:31;1.00;;;0.70;;
61897;SDS011;47850;50.274;18.908;2023-08-06T11:48:02;1.30;;;0.60;;
61897;SDS011;47850;50.274;18.908;2023-08-06T11:50:30;1.20;;;0.60;;
61897;SDS011;47850;50.274;18.908;2023-08-06T11:52:59;2.90;;;0.70;;
61897;SDS011;47850;50.274;18.908;2023-08-06T11:55:28;1.00;;;0.60;;
61897;SDS011;47850;50.274;18.908;2023-08-06T11:57:56;1.40;;;0.80;;
61897;SDS011;47850;50.274;18.908;2023-08-06T12:00:25;1.60;;;1.00;;
61897;SDS011;47850;50.274;18.908;2023-08-06T12:02:53;3.30;;;1.10;;
61897;SDS011;47850;50.274;18.908;2023-08-06T12:05:23;0.80;;;0.70;;
61897;SDS011;47850;50.274;18.908;2023-08-06T12:07:58;1.50;;;0.80;;
61897;SDS011;47850;50.274;18.908;2023-08-06T12:10:28;2.30;;;0.80;;
61897;SDS011;47850;50.274;18.908;2023-08-06T12:12:59;1.40;;;0.80;;
61897;SDS011;47850;50.274;18.908;2023-08-06T12:15:27;5.70;;;0.90;;
61897;SDS011;47850;50.274;18.908;2023-08-06T12:17:55;1.70;;;0.70;;
61897;SDS011;47850;50.274;18.908;2023-08-06T12:20:23;1.00;;;0.80;;
61897;SDS011;47850;50.274;18.908;2023-08-06T12:22:51;1.10;;;0.60;;
61897;SDS011;47850;50.274;18.908;2023-08-06T12:25:19;1.70;;;1.20;;
61897;SDS011;47850;50.274;18.908;2023-08-06T12:27:49;3.30;;;1.20;;
61897;SDS011;47850;50.274;18.908;2023-08-06T12:30:18;1.50;;;1.00;;
61897;SDS011;47850;50.274;18.908;2023-08-06T12:32:45;1.80;;;1.00;;
61897;SDS011;47850;50.274;18.908;2023-08-06T12:35:13;1.50;;;0.90;;
61897;SDS011;47850;50.274;18.908;2023-08-06T12:37:41;2.00;;;0.90;;
61897;SDS011;47850;50.274;18.908;2023-08-06T12:40:11;1.40;;;0.70;;
61897;SDS011;47850;50.274;18.908;2023-08-06T12:42:39;0.80;;;0.70;;
61897;SDS011;47850;50.274;18.908;2023-08-06T12:45:07;4.00;;;0.80;;
61897;SDS011;47850;50.274;18.908;2023-08-06T12:47:35;1.20;;;0.90;;
61897;SDS011;47850;50.274;18.908;2023-08-06T12:50:03;0.70;;;0.50;;
61897;SDS011;47850;50.274;18.908;2023-08-06T12:52:31;1.50;;;0.60;;
61897;SDS011;47850;50.274;18.908;2023-08-06T12:54:59;0.90;;;0.50;;
61897;SDS011;47850;50.274;18.908;2023-08-06T12:57:27;1.10;;;0.50;;
61897;SDS011;47850;50.274;18.908;2023-08-06T12:59:57;1.10;;;0.80;;
61897;SDS011;47850;50.274;18.908;2023-08-06T13:02:24;1.20;;;0.60;;
61897;SDS011;47850;50.274;18.908;2023-08-06T13:04:57;1.00;;;0.60;;
61897;SDS011;47850;50.274;18.908;2023-08-06T13:07:25;0.90;;;0.70;;
61897;SDS011;47850;50.274;18.908;2023-08-06T13:09:53;1.40;;;0.80;;
61897;SDS011;47850;50.274;18.908;2023-08-06T13:12:21;2.80;;;0.80;;
61897;SDS011;47850;50.274;18.908;2023-08-06T13:14:50;1.40;;;0.80;;
61897;SDS011;47850;50.274;18.908;2023-08-06T13:17:20;1.10;;;0.80;;
61897;SDS011;47850;50.274;18.908;2023-08-06T13:19:48;1.30;;;0.90;;
61897;SDS011;47850;50.274;18.908;2023-08-06T13:22:15;0.60;;;0.50;;
61897;SDS011;47850;50.274;18.908;2023-08-06T13:24:43;0.70;;;0.70;;
61897;SDS011;47850;50.274;18.908;2023-08-06T13:27:11;1.30;;;0.90;;
61897;SDS011;47850;50.274;18.908;2023-08-06T13:29:39;1.30;;;0.60;;
61897;SDS011;47850;50.274;18.908;2023-08-06T13:32:07;0.60;;;0.50;;
61897;SDS011;47850;50.274;18.908;2023-08-06T13:34:35;1.80;;;0.50;;
61897;SDS011;47850;50.274;18.908;2023-08-06T13:37:02;1.00;;;0.60;;
61897;SDS011;47850;50.274;18.908;2023-08-06T13:39:30;1.30;;;0.70;;
61897;SDS011;47850;50.274;18.908;2023-08-06T13:41:58;1.10;;;0.50;;
61897;SDS011;47850;50.274;18.908;2023-08-06T13:44:26;1.30;;;0.80;;
61897;SDS011;47850;50.274;18.908;2023-08-06T13:46:54;0.90;;;0.60;;
61897;SDS011;47850;50.274;18.908;2023-08-06T13:49:22;0.80;;;0.60;;
61897;SDS011;47850;50.274;18.908;2023-08-06T13:51:50;1.20;;;0.70;;
61897;SDS011;47850;50.274;18.908;2023-08-06T13:54:17;1.10;;;0.50;;
61897;SDS011;47850;50.274;18.908;2023-08-06T13:56:45;0.90;;;0.60;;
61897;SDS011;47850;50.274;18.908;2023-08-06T13:59:13;0.80;;;0.60;;
61897;SDS011;47850;50.274;18.908;2023-08-06T14:01:41;0.90;;;0.60;;
61897;SDS011;47850;50.274;18.908;2023-08-06T14:04:09;0.90;;;0.60;;
61897;SDS011;47850;50.274;18.908;2023-08-06T14:06:37;1.20;;;0.80;;
61897;SDS011;47850;50.274;18.908;2023-08-06T14:09:05;1.60;;;0.70;;
61897;SDS011;47850;50.274;18.908;2023-08-06T14:11:33;1.20;;;0.80;;
61897;SDS011;47850;50.274;18.908;2023-08-06T14:14:01;0.80;;;0.60;;
61897;SDS011;47850;50.274;18.908;2023-08-06T14:16:29;0.80;;;0.50;;
61897;SDS011;47850;50.274;18.908;2023-08-06T14:18:57;1.60;;;0.60;;
61897;SDS011;47850;50.274;18.908;2023-08-06T14:21:24;2.20;;;0.50;;
61897;SDS011;47850;50.274;18.908;2023-08-06T14:23:52;1.30;;;0.60;;
61897;SDS011;47850;50.274;18.908;2023-08-06T14:26:20;1.30;;;0.60;;
61897;SDS011;47850;50.274;18.908;2023-08-06T14:28:48;2.40;;;0.60;;
61897;SDS011;47850;50.274;18.908;2023-08-06T14:31:16;0.70;;;0.60;;
61897;SDS011;47850;50.274;18.908;2023-08-06T14:33:44;1.10;;;0.70;;
61897;SDS011;47850;50.274;18.908;2023-08-06T14:36:12;1.20;;;0.70;;
61897;SDS011;47850;50.274;18.908;2023-08-06T14:38:39;0.90;;;0.60;;
61897;SDS011;47850;50.274;18.908;2023-08-06T14:41:07;0.70;;;0.40;;
61897;SDS011;47850;50.274;18.908;2023-08-06T14:43:35;0.80;;;0.60;;
61897;SDS011;47850;50.274;18.908;2023-08-06T14:46:03;0.60;;;0.50;;
61897;SDS011;47850;50.274;18.908;2023-08-06T14:48:31;1.00;;;0.60;;
61897;SDS011;47850;50.274;18.908;2023-08-06T14:50:59;2.60;;;0.50;;
61897;SDS011;47850;50.274;18.908;2023-08-06T14:53:27;1.20;;;0.50;;
61897;SDS011;47850;50.274;18.908;2023-08-06T14:55:55;1.70;;;0.60;;
61897;SDS011;47850;50.274;18.908;2023-08-06T14:58:22;1.30;;;0.70;;
61897;SDS011;47850;50.274;18.908;2023-08-06T15:00:50;2.50;;;0.90;;